createdAt,value
2023-04-12T00:00:50.935Z,13.20
2023-04-12T00:03:21.327Z,13.20
2023-04-12T00:05:55.207Z,13.20
2023-04-12T00:08:26.689Z,13.20
2023-04-12T00:10:54.102Z,13.20
2023-04-12T00:13:21.311Z,13.10
2023-04-12T00:15:48.508Z,13.10
2023-04-12T00:18:15.856Z,13.10
2023-04-12T00:20:44.046Z,13.10
2023-04-12T00:23:13.145Z,13.00
2023-04-12T00:25:40.477Z,13.00
2023-04-12T00:28:07.691Z,13.00
2023-04-12T00:30:37.274Z,13.00
2023-04-12T00:33:05.138Z,12.90
2023-04-12T00:35:32.391Z,12.90
2023-04-12T00:37:59.865Z,12.90
2023-04-12T00:40:27.013Z,12.90
2023-04-12T00:42:54.232Z,12.80
2023-04-12T00:45:21.894Z,12.80
2023-04-12T00:47:49.410Z,12.70
2023-04-12T00:50:16.782Z,12.70
2023-04-12T00:52:44.033Z,12.70
2023-04-12T00:55:12.008Z,12.70
2023-04-12T00:57:41.279Z,12.60
2023-04-12T01:00:12.869Z,12.60
2023-04-12T01:02:51.071Z,12.50
2023-04-12T01:05:23.862Z,12.50
2023-04-12T01:08:06.874Z,12.40
2023-04-12T01:11:23.538Z,12.40
2023-04-12T01:14:22.233Z,12.40
2023-04-12T01:16:55.986Z,12.40
2023-04-12T01:19:34.304Z,12.30
2023-04-12T01:22:38.816Z,12.30
2023-04-12T01:25:52.807Z,12.30
2023-04-12T01:28:32.605Z,12.20
2023-04-12T01:31:03.726Z,12.20
2023-04-12T01:33:32.196Z,12.20
2023-04-12T01:36:07.031Z,12.10
2023-04-12T01:38:35.736Z,12.10
2023-04-12T01:41:03.404Z,12.10
2023-04-12T01:43:30.847Z,12.10
2023-04-12T01:45:58.166Z,12.10
2023-04-12T01:48:25.531Z,12.00
2023-04-12T01:51:06.492Z,12.00
2023-04-12T01:53:57.652Z,12.00
2023-04-12T01:56:30.162Z,12.00
2023-04-12T01:58:59.902Z,12.00
2023-04-12T02:01:29.583Z,11.90
2023-04-12T02:04:01.305Z,11.90
2023-04-12T02:06:31.615Z,11.90
2023-04-12T02:09:06.030Z,11.90
2023-04-12T02:11:33.367Z,11.90
2023-04-12T02:14:03.219Z,11.80
2023-04-12T02:16:34.752Z,11.80
2023-04-12T02:23:02.183Z,11.80
2023-04-12T02:25:29.544Z,11.80
2023-04-12T02:27:57.015Z,11.80
2023-04-12T02:30:24.350Z,11.80
2023-04-12T02:32:53.613Z,11.70
2023-04-12T02:35:21.238Z,11.70
2023-04-12T02:37:48.727Z,11.70
2023-04-12T02:40:16.307Z,11.70
2023-04-12T02:42:45.578Z,11.70
2023-04-12T02:45:12.827Z,11.70
2023-04-12T02:47:42.409Z,11.70
2023-04-12T02:50:09.977Z,11.70
2023-04-12T02:52:37.156Z,11.70
2023-04-12T02:55:04.753Z,11.70
2023-04-12T02:57:32.078Z,11.70
2023-04-12T02:59:59.382Z,11.70
2023-04-12T03:02:26.795Z,11.70
2023-04-12T03:04:55.066Z,11.70
2023-04-12T03:07:22.304Z,11.70
2023-04-12T03:09:51.952Z,11.70
2023-04-12T03:12:19.284Z,11.70
2023-04-12T03:14:46.561Z,11.70
2023-04-12T03:17:13.986Z,11.70
2023-04-12T03:19:44.006Z,11.70
2023-04-12T03:22:13.974Z,11.70
2023-04-12T03:24:43.034Z,11.70
2023-04-12T03:27:10.472Z,11.70
2023-04-12T03:29:37.861Z,11.70
2023-04-12T03:32:05.229Z,11.70
2023-04-12T03:34:32.543Z,11.70
2023-04-12T03:37:02.360Z,11.70
2023-04-12T03:39:29.834Z,11.70
2023-04-12T03:41:57.153Z,11.70
2023-04-12T03:44:26.450Z,11.70
2023-04-12T03:46:54.319Z,11.70
2023-04-12T03:49:22.135Z,11.70
2023-04-12T03:51:51.063Z,11.70
2023-04-12T03:54:18.396Z,11.70
2023-04-12T03:56:46.356Z,11.70
2023-04-12T03:59:14.935Z,11.60
2023-04-12T04:01:43.612Z,11.60
2023-04-12T04:04:11.357Z,11.60
2023-04-12T04:06:39.163Z,11.60
2023-04-12T04:09:07.139Z,11.60
2023-04-12T04:11:34.350Z,11.50
2023-04-12T04:14:04.578Z,11.50
2023-04-12T04:16:31.953Z,11.50
2023-04-12T04:18:59.332Z,11.50
2023-04-12T04:21:26.981Z,11.50
2023-04-12T04:23:54.780Z,11.50
2023-04-12T04:26:33.377Z,11.50
2023-04-12T04:29:02.108Z,11.50
2023-04-12T04:31:36.519Z,11.50
2023-04-12T04:34:05.683Z,11.40
2023-04-12T04:36:38.395Z,11.40
2023-04-12T04:39:05.767Z,11.40
2023-04-12T04:41:39.525Z,11.40
2023-04-12T04:44:13.772Z,11.40
2023-04-12T04:46:43.584Z,11.40
2023-04-12T04:49:11.212Z,11.40
2023-04-12T04:51:38.416Z,11.40
2023-04-12T04:54:06.046Z,11.40
2023-04-12T04:56:33.280Z,11.40
2023-04-12T04:59:00.761Z,11.30
2023-04-12T05:01:28.858Z,11.30
2023-04-12T05:03:56.513Z,11.30
2023-04-12T05:06:24.139Z,11.30
2023-04-12T05:09:28.973Z,11.30
2023-04-12T05:11:56.222Z,11.30
2023-04-12T05:14:23.468Z,11.30
2023-04-12T05:16:53.997Z,11.30
2023-04-12T05:19:22.049Z,11.30
2023-04-12T05:21:49.277Z,11.30
2023-04-12T05:24:16.395Z,11.30
2023-04-12T05:26:43.566Z,11.30
2023-04-12T05:29:11.283Z,11.30
2023-04-12T05:31:38.448Z,11.30
2023-04-12T05:34:05.887Z,11.40
2023-04-12T05:36:33.708Z,11.30
2023-04-12T05:39:01.544Z,11.40
2023-04-12T05:41:49.329Z,11.30
2023-04-12T05:44:18.162Z,11.30
2023-04-12T05:46:45.653Z,11.30
2023-04-12T05:49:12.827Z,11.30
2023-04-12T05:51:41.647Z,11.30
2023-04-12T05:54:10.727Z,11.30
2023-04-12T06:00:54.473Z,11.30
2023-04-12T06:03:25.852Z,11.30
2023-04-12T06:05:53.854Z,11.40
2023-04-12T06:08:21.474Z,11.40
2023-04-12T06:14:49.018Z,11.40
2023-04-12T06:21:27.810Z,11.40
2023-04-12T06:23:55.158Z,11.40
2023-04-12T06:26:22.468Z,11.50
2023-04-12T06:28:52.349Z,11.50
2023-04-12T06:31:21.549Z,11.50
2023-04-12T06:33:50.648Z,11.50
2023-04-12T06:36:18.074Z,11.50
2023-04-12T06:38:45.422Z,11.60
2023-04-12T06:41:13.231Z,11.60
2023-04-12T06:43:40.895Z,11.60
2023-04-12T06:46:09.593Z,11.60
2023-04-12T06:48:37.360Z,11.60
2023-04-12T06:51:04.925Z,11.70
2023-04-12T06:53:35.729Z,11.70
2023-04-12T06:56:06.670Z,11.70
2023-04-12T06:58:34.160Z,11.70
2023-04-12T07:01:10.964Z,11.70
2023-04-12T07:03:58.177Z,11.80
2023-04-12T07:06:26.395Z,11.80
2023-04-12T07:08:54.013Z,11.80
2023-04-12T07:11:23.521Z,11.90
2023-04-12T07:17:38.162Z,11.90
2023-04-12T07:20:06.344Z,12.00
2023-04-12T07:22:33.906Z,12.00
2023-04-12T07:25:01.446Z,12.00
2023-04-12T07:27:29.438Z,12.10
2023-04-12T07:29:58.667Z,12.10
2023-04-12T07:32:27.282Z,12.10
2023-04-12T07:34:54.897Z,12.20
2023-04-12T07:37:23.413Z,12.20
2023-04-12T07:39:51.978Z,12.20
2023-04-12T07:42:19.385Z,12.30
2023-04-12T07:44:46.809Z,12.30
2023-04-12T07:47:13.997Z,12.30
2023-04-12T07:49:41.663Z,12.30
2023-04-12T07:52:08.983Z,12.40
2023-04-12T07:54:36.422Z,12.40
2023-04-12T07:57:04.243Z,12.40
2023-04-12T07:59:32.222Z,12.50
2023-04-12T08:02:00.280Z,12.50
2023-04-12T08:04:30.779Z,12.50
2023-04-12T08:06:58.062Z,12.60
2023-04-12T08:09:25.538Z,12.60
2023-04-12T08:11:52.825Z,12.70
2023-04-12T08:14:21.543Z,12.70
2023-04-12T08:16:48.957Z,12.70
2023-04-12T08:19:16.993Z,12.70
2023-04-12T08:21:44.395Z,12.70
2023-04-12T08:24:12.494Z,12.80
2023-04-12T08:26:39.996Z,12.80
2023-04-12T08:29:07.463Z,12.80
2023-04-12T08:31:35.190Z,12.90
2023-04-12T08:34:02.687Z,12.90
2023-04-12T08:36:30.389Z,13.00
2023-04-12T08:39:02.187Z,13.00
2023-04-12T08:41:29.829Z,13.10
2023-04-12T08:43:59.486Z,13.10
2023-04-12T08:46:28.476Z,13.10
2023-04-12T08:48:57.407Z,13.10
2023-04-12T08:51:25.559Z,13.10
2023-04-12T08:53:54.193Z,13.20
2023-04-12T08:56:23.930Z,13.20
2023-04-12T08:58:52.920Z,13.20
2023-04-12T09:01:22.021Z,13.30
2023-04-12T09:04:45.769Z,13.40
2023-04-12T09:07:13.457Z,13.50
2023-04-12T09:09:46.720Z,13.50
2023-04-12T09:12:15.996Z,13.60
2023-04-12T09:14:47.007Z,13.60
2023-04-12T09:17:27.983Z,13.60
2023-04-12T09:19:56.659Z,13.80
2023-04-12T09:22:41.766Z,13.90
2023-04-12T09:25:09.401Z,14.00
2023-04-12T09:27:51.246Z,14.10
2023-04-12T09:30:20.811Z,14.20
2023-04-12T09:32:53.716Z,14.30
2023-04-12T09:35:37.121Z,14.30
2023-04-12T09:38:11.533Z,14.40
2023-04-12T09:40:39.237Z,14.40
2023-04-12T09:43:08.635Z,14.50
2023-04-12T09:45:39.417Z,14.60
2023-04-12T09:48:08.246Z,14.70
2023-04-12T09:50:35.937Z,14.80
2023-04-12T09:53:15.504Z,15.00
2023-04-12T09:55:42.980Z,15.20
2023-04-12T09:58:11.969Z,15.50
2023-04-12T10:00:40.330Z,15.80
2023-04-12T10:03:08.432Z,16.20
2023-04-12T10:05:40.997Z,16.50
2023-04-12T10:08:08.500Z,16.70
2023-04-12T10:10:37.247Z,16.90
2023-04-12T10:13:06.715Z,17.00
2023-04-12T10:15:36.640Z,17.20
2023-04-12T10:18:05.938Z,17.30
2023-04-12T10:20:33.586Z,17.40
2023-04-12T10:23:01.361Z,17.50
2023-04-12T10:25:32.441Z,17.70
2023-04-12T10:28:19.289Z,17.80
2023-04-12T10:30:49.666Z,18.00
2023-04-12T10:33:27.377Z,18.10
2023-04-12T10:36:08.821Z,18.20
2023-04-12T10:38:47.601Z,18.30
2023-04-12T10:41:20.988Z,18.40
2023-04-12T10:44:09.349Z,18.40
2023-04-12T10:46:40.115Z,18.50
2023-04-12T10:49:15.759Z,18.40
2023-04-12T10:52:02.348Z,18.40
2023-04-12T10:54:32.824Z,18.40
2023-04-12T10:57:00.313Z,18.40
2023-04-12T10:59:57.524Z,18.40
2023-04-12T11:02:25.490Z,18.50
2023-04-12T11:05:10.398Z,18.60
2023-04-12T11:07:46.382Z,18.70
2023-04-12T11:10:16.585Z,18.90
2023-04-12T11:12:52.849Z,19.00
2023-04-12T11:15:23.231Z,19.20
2023-04-12T11:17:58.419Z,19.30
2023-04-12T11:20:27.966Z,19.30
2023-04-12T11:22:55.821Z,19.40
2023-04-12T11:25:23.409Z,19.40
2023-04-12T11:27:55.884Z,19.40
2023-04-12T11:30:25.756Z,19.40
2023-04-12T11:32:56.009Z,19.50
2023-04-12T11:35:27.702Z,19.60
2023-04-12T11:37:58.968Z,19.70
2023-04-12T11:40:26.647Z,19.80
2023-04-12T11:42:53.995Z,19.90
2023-04-12T11:45:24.439Z,19.90
2023-04-12T11:47:52.465Z,20.00
2023-04-12T11:50:31.435Z,20.10
2023-04-12T11:53:12.379Z,20.30
2023-04-12T11:55:39.666Z,20.50
2023-04-12T11:58:07.440Z,20.70
2023-04-12T12:00:35.136Z,20.90
2023-04-12T12:03:08.307Z,21.10
2023-04-12T12:05:39.293Z,21.30
2023-04-12T12:08:11.764Z,21.30
2023-04-12T12:10:52.313Z,21.20
2023-04-12T12:13:27.822Z,21.20
2023-04-12T12:15:55.319Z,21.00
2023-04-12T12:18:27.554Z,20.90
2023-04-12T12:20:56.015Z,20.80
2023-04-12T12:23:33.396Z,20.80
2023-04-12T12:26:17.883Z,20.70
2023-04-12T12:28:56.058Z,20.60
2023-04-12T12:31:28.264Z,20.60
2023-04-12T12:34:05.796Z,20.50
2023-04-12T12:36:39.278Z,20.40
2023-04-12T12:39:12.085Z,20.10
2023-04-12T12:41:40.476Z,19.70
2023-04-12T12:44:08.393Z,19.30
2023-04-12T12:49:06.471Z,18.40
2023-04-12T12:51:33.945Z,17.90
2023-04-12T12:54:01.548Z,17.50
2023-04-12T12:56:28.769Z,17.20
2023-04-12T12:58:56.278Z,16.90
2023-04-12T13:01:23.818Z,16.60
2023-04-12T13:03:54.122Z,16.30
2023-04-12T13:06:28.348Z,16.10
2023-04-12T13:08:55.953Z,15.90
2023-04-12T13:11:23.504Z,15.70
2023-04-12T13:13:50.641Z,15.50
2023-04-12T13:16:17.892Z,15.40
2023-04-12T13:18:45.383Z,15.30
2023-04-12T13:21:16.227Z,15.20
2023-04-12T13:23:43.434Z,15.20
2023-04-12T13:26:10.724Z,15.00
2023-04-12T13:33:09.235Z,14.80
2023-04-12T13:35:36.555Z,14.50
2023-04-12T13:38:03.762Z,14.40
2023-04-12T13:40:31.075Z,14.20
2023-04-12T13:42:58.609Z,14.00
2023-04-12T13:45:26.139Z,13.90
2023-04-12T13:47:53.872Z,13.80
2023-04-12T13:50:21.453Z,13.60
2023-04-12T13:52:49.173Z,13.50
2023-04-12T13:55:16.662Z,13.50
2023-04-12T13:57:43.881Z,13.50
2023-04-12T14:00:12.010Z,13.50
2023-04-12T14:02:40.027Z,13.70
2023-04-12T14:05:08.766Z,14.10
2023-04-12T14:07:36.424Z,14.60
2023-04-12T14:10:06.778Z,14.90
2023-04-12T14:12:34.155Z,15.20
2023-04-12T14:15:01.635Z,15.40
2023-04-12T14:17:32.937Z,15.30
2023-04-12T14:20:00.758Z,15.20
2023-04-12T14:22:28.417Z,15.00
2023-04-12T14:24:55.859Z,14.70
2023-04-12T14:27:23.246Z,14.30
2023-04-12T14:29:50.492Z,13.90
2023-04-12T14:32:17.745Z,13.60
2023-04-12T14:34:45.139Z,13.40
2023-04-12T14:37:12.622Z,13.20
2023-04-12T14:39:39.819Z,13.00
2023-04-12T14:42:07.026Z,13.00
2023-04-12T14:44:34.397Z,13.10
2023-04-12T14:47:01.870Z,13.40
2023-04-12T14:49:32.460Z,13.60
2023-04-12T14:52:01.310Z,13.80
2023-04-12T14:54:28.749Z,14.00
2023-04-12T14:56:57.135Z,14.20
2023-04-12T14:59:25.098Z,14.30
2023-04-12T15:01:53.120Z,14.40
2023-04-12T15:04:20.870Z,14.50
2023-04-12T15:06:51.372Z,14.60
2023-04-12T15:09:18.792Z,14.90
2023-04-12T15:11:50.764Z,15.20
2023-04-12T15:14:20.968Z,15.70
2023-04-12T15:16:52.362Z,16.20
2023-04-12T15:19:32.024Z,16.50
2023-04-12T15:22:00.570Z,16.80
2023-04-12T15:24:28.672Z,16.90
2023-04-12T15:26:56.898Z,16.80
2023-04-12T15:29:24.716Z,16.70
2023-04-12T15:31:52.040Z,16.60
2023-04-12T15:34:19.813Z,16.40
2023-04-12T15:36:47.341Z,16.20
2023-04-12T15:39:15.300Z,16.00
2023-04-12T15:41:43.150Z,15.70
2023-04-12T15:44:15.378Z,15.40
2023-04-12T15:46:53.370Z,15.10
2023-04-12T15:49:27.449Z,14.70
2023-04-12T15:51:57.788Z,14.30
2023-04-12T15:54:25.096Z,14.00
2023-04-12T15:56:53.260Z,13.70
2023-04-12T15:59:20.706Z,13.40
2023-04-12T16:01:52.056Z,13.20
2023-04-12T16:04:19.422Z,13.00
2023-04-12T16:06:46.722Z,12.80
2023-04-12T16:09:22.625Z,12.70
2023-04-12T16:11:49.867Z,12.60
2023-04-12T16:14:17.667Z,12.60
2023-04-12T16:16:45.553Z,12.60
2023-04-12T16:19:15.645Z,12.60
2023-04-12T16:21:44.579Z,12.60
2023-04-12T16:24:12.092Z,12.70
2023-04-12T16:26:40.426Z,12.80
2023-04-12T16:29:07.725Z,12.90
2023-04-12T16:32:50.907Z,13.20
2023-04-12T16:36:16.800Z,13.60
2023-04-12T16:38:50.274Z,14.40
2023-04-12T16:41:20.864Z,15.00
2023-04-12T16:43:55.044Z,15.50
2023-04-12T16:46:29.818Z,16.00
2023-04-12T16:48:59.821Z,16.50
2023-04-12T16:51:27.335Z,17.00
2023-04-12T16:54:04.626Z,17.30
2023-04-12T16:56:32.565Z,17.70
2023-04-12T16:59:00.284Z,18.00
2023-04-12T17:01:27.443Z,18.30
2023-04-12T17:03:54.913Z,18.50
2023-04-12T17:06:22.367Z,18.70
2023-04-12T17:08:49.547Z,18.90
2023-04-12T17:11:17.341Z,19.00
2023-04-12T17:13:46.447Z,19.10
2023-04-12T17:16:16.780Z,19.10
2023-04-12T17:18:44.505Z,19.10
2023-04-12T17:21:12.212Z,19.00
2023-04-12T17:23:39.670Z,18.80
2023-04-12T17:26:08.442Z,18.50
2023-04-12T17:28:38.016Z,18.10
2023-04-12T17:31:06.160Z,17.70
2023-04-12T17:33:35.828Z,17.40
2023-04-12T17:36:04.331Z,17.00
2023-04-12T17:38:31.739Z,16.80
2023-04-12T17:40:59.114Z,16.60
2023-04-12T17:43:26.510Z,16.50
2023-04-12T17:46:01.055Z,16.40
2023-04-12T17:48:32.408Z,16.20
2023-04-12T17:51:06.963Z,16.10
2023-04-12T17:54:01.038Z,15.80
2023-04-12T17:56:28.479Z,15.60
2023-04-12T17:58:55.857Z,15.40
2023-04-12T18:01:25.370Z,15.20
2023-04-12T18:03:53.003Z,15.00
2023-04-12T18:06:20.618Z,14.80
2023-04-12T18:08:47.849Z,14.50
2023-04-12T18:11:15.215Z,14.30
2023-04-12T18:13:42.830Z,14.10
2023-04-12T18:16:10.289Z,13.90
2023-04-12T18:18:37.868Z,13.70
2023-04-12T18:21:06.713Z,13.50
2023-04-12T18:23:34.630Z,13.30
2023-04-12T18:26:01.979Z,13.10
2023-04-12T18:28:34.998Z,13.00
2023-04-12T18:31:03.087Z,12.80
2023-04-12T18:33:31.537Z,12.60
2023-04-12T18:35:58.805Z,12.50
2023-04-12T18:38:32.845Z,12.30
2023-04-12T18:41:00.633Z,12.20
2023-04-12T18:43:28.347Z,12.10
2023-04-12T18:45:56.417Z,12.00
2023-04-12T18:52:37.882Z,11.70
2023-04-12T18:55:06.509Z,11.70
2023-04-12T18:57:33.984Z,11.60
2023-04-12T19:00:01.343Z,11.50
2023-04-12T19:02:32.230Z,11.50
2023-04-12T19:05:00.248Z,11.40
2023-04-12T19:07:28.065Z,11.40
2023-04-12T19:09:55.824Z,11.30
2023-04-12T19:12:23.392Z,11.40
2023-04-12T19:14:50.750Z,11.30
2023-04-12T19:17:19.836Z,11.30
2023-04-12T19:19:47.081Z,11.30
2023-04-12T19:22:17.344Z,11.30
2023-04-12T19:24:44.686Z,11.30
2023-04-12T19:27:11.834Z,11.30
2023-04-12T19:29:39.268Z,11.30
2023-04-12T19:33:24.347Z,11.30
2023-04-12T19:35:52.322Z,11.30
2023-04-12T19:38:21.283Z,11.30
2023-04-12T19:40:51.148Z,11.40
2023-04-12T19:43:19.351Z,11.30
2023-04-12T19:45:47.232Z,11.30
2023-04-12T19:48:14.773Z,11.30
2023-04-12T19:50:43.303Z,11.30
2023-04-12T19:53:12.345Z,11.30
2023-04-12T19:55:40.012Z,11.30
2023-04-12T20:02:19.277Z,11.20
2023-04-12T20:04:49.024Z,11.20
2023-04-12T20:07:19.362Z,11.10
2023-04-12T20:09:46.603Z,11.10
2023-04-12T20:12:14.114Z,11.00
2023-04-12T20:14:41.481Z,11.00
2023-04-12T20:17:08.935Z,10.90
2023-04-12T20:19:36.544Z,10.90
2023-04-12T20:22:04.416Z,10.80
2023-04-12T20:24:34.757Z,10.80
2023-04-12T20:27:02.704Z,10.70
2023-04-12T20:29:35.025Z,10.70
2023-04-12T20:32:02.554Z,10.60
2023-04-12T20:34:29.727Z,10.60
2023-04-12T20:36:56.952Z,10.50
2023-04-12T20:39:24.481Z,10.40
2023-04-12T20:41:53.890Z,10.40
2023-04-12T20:44:21.434Z,10.30
2023-04-12T20:46:49.417Z,10.30
2023-04-12T20:49:16.875Z,10.20
2023-04-12T20:51:46.926Z,10.20
2023-04-12T20:54:14.767Z,10.20
2023-04-12T20:56:42.183Z,10.10
2023-04-12T20:59:10.692Z,10.10
2023-04-12T21:01:38.016Z,10.00
2023-04-12T21:04:06.850Z,10.00
2023-04-12T21:06:34.742Z,10.00
2023-04-12T21:09:06.051Z,9.90
2023-04-12T21:11:33.536Z,9.90
2023-04-12T21:14:01.532Z,9.90
2023-04-12T21:16:28.912Z,9.90
2023-04-12T21:18:56.361Z,9.90
2023-04-12T21:21:23.825Z,9.90
2023-04-12T21:23:51.943Z,9.80
2023-04-12T21:26:19.091Z,9.80
2023-04-12T21:28:46.259Z,9.80
2023-04-12T21:31:13.729Z,9.80
2023-04-12T21:33:41.877Z,9.80
2023-04-12T21:36:10.361Z,9.80
2023-04-12T21:38:37.669Z,9.80
2023-04-12T21:41:11.485Z,9.80
2023-04-12T21:43:42.120Z,9.80
2023-04-12T21:46:09.391Z,9.80
2023-04-12T21:48:37.067Z,9.80
2023-04-12T21:51:06.428Z,9.70
2023-04-12T21:53:33.819Z,9.70
2023-04-12T21:56:01.322Z,9.70
2023-04-12T21:58:33.422Z,9.70
2023-04-12T22:01:00.727Z,9.70
2023-04-12T22:03:28.642Z,9.70
2023-04-12T22:06:04.273Z,9.70
2023-04-12T22:08:34.013Z,9.70
2023-04-12T22:11:01.665Z,9.80
2023-04-12T22:13:29.531Z,9.80
2023-04-12T22:15:58.084Z,9.80
2023-04-12T22:18:25.807Z,9.80
2023-04-12T22:20:53.262Z,9.90
2023-04-12T22:23:20.486Z,9.90
2023-04-12T22:25:48.278Z,9.90
2023-04-12T22:32:26.889Z,10.00
2023-04-12T22:35:08.227Z,10.00
2023-04-12T22:37:41.557Z,10.00
2023-04-12T22:40:12.533Z,10.10
2023-04-12T22:42:47.868Z,10.10
2023-04-12T22:45:17.173Z,10.10
2023-04-12T22:47:45.713Z,10.10
2023-04-12T22:50:13.523Z,10.10
2023-04-12T22:52:42.000Z,10.10
2023-04-12T22:55:14.979Z,10.10
2023-04-12T22:57:42.466Z,10.10
2023-04-12T23:00:15.978Z,10.20
2023-04-12T23:02:46.194Z,10.20
2023-04-12T23:05:14.515Z,10.20
2023-04-12T23:07:43.726Z,10.20
2023-04-12T23:10:12.396Z,10.20
2023-04-12T23:12:40.092Z,10.20
2023-04-12T23:15:09.256Z,10.30
2023-04-12T23:17:37.129Z,10.30
2023-04-12T23:20:10.130Z,10.30
2023-04-12T23:22:56.755Z,10.30
2023-04-12T23:25:38.232Z,10.30
2023-04-12T23:28:19.432Z,10.30
2023-04-12T23:30:49.854Z,10.30
2023-04-12T23:33:22.041Z,10.40
2023-04-12T23:35:56.212Z,10.40
2023-04-12T23:38:27.354Z,10.40
2023-04-12T23:40:54.684Z,10.40
2023-04-12T23:43:26.162Z,10.50
2023-04-12T23:45:54.294Z,10.40
2023-04-12T23:48:22.176Z,10.50
2023-04-12T23:50:50.254Z,10.50
2023-04-12T23:53:18.815Z,10.50
2023-04-12T23:55:53.501Z,10.60
2023-04-12T23:58:21.645Z,10.60
